createdAt,value
2016-07-26T00:02:08.978Z,1011.05
2016-07-26T00:05:22.511Z,1011.11
2016-07-26T00:08:35.858Z,1011.01
2016-07-26T00:11:53.439Z,1011.03
2016-07-26T00:14:58.954Z,1011.03
2016-07-26T00:18:12.643Z,1010.99
2016-07-26T00:21:26.416Z,1011.03
2016-07-26T00:24:40.209Z,1011.03
2016-07-26T00:27:54.182Z,1010.91
2016-07-26T00:31:08.177Z,1010.99
2016-07-26T00:34:22.183Z,1011.03
2016-07-26T00:37:35.381Z,1011.01
2016-07-26T00:40:53.261Z,1011.01
2016-07-26T00:43:58.598Z,1011.09
2016-07-26T00:47:11.931Z,1011.11
2016-07-26T00:50:25.838Z,1011.15
2016-07-26T00:53:39.538Z,1011.17
2016-07-26T00:56:53.245Z,1011.21
2016-07-26T01:00:06.974Z,1011.17
2016-07-26T01:03:20.505Z,1011.21
2016-07-26T01:06:34.188Z,1011.13
2016-07-26T01:09:52.029Z,1011.19
2016-07-26T01:12:57.289Z,1011.23
2016-07-26T01:16:10.960Z,1011.17
2016-07-26T01:19:24.740Z,1011.25
2016-07-26T01:22:38.689Z,1011.25
2016-07-26T01:25:56.408Z,1011.21
2016-07-26T01:29:01.769Z,1011.21
2016-07-26T01:32:15.359Z,1011.03
2016-07-26T01:35:29.148Z,1011.09
2016-07-26T01:38:46.990Z,1011.09
2016-07-26T01:41:56.435Z,1011.09
2016-07-26T01:45:00.741Z,1011.09
2016-07-26T01:48:15.603Z,1011.13
2016-07-26T01:51:29.171Z,1011.19
2016-07-26T01:54:47.078Z,1011.35
2016-07-26T01:57:56.424Z,1011.31
2016-07-26T02:01:01.830Z,1011.23
2016-07-26T02:04:15.638Z,1011.23
2016-07-26T02:07:29.398Z,1011.17
2016-07-26T02:10:47.305Z,1011.21
2016-07-26T02:13:52.792Z,1011.19
2016-07-26T02:17:06.238Z,1011.21
2016-07-26T02:20:20.235Z,1011.21
2016-07-26T02:23:33.485Z,1011.25
2016-07-26T02:26:51.080Z,1011.27
2016-07-26T02:29:56.380Z,1011.19
2016-07-26T02:33:09.667Z,1011.19
2016-07-26T02:36:23.470Z,1011.23
2016-07-26T02:39:37.260Z,1011.29
2016-07-26T02:42:55.112Z,1011.29
2016-07-26T02:46:00.487Z,1011.39
2016-07-26T02:49:13.883Z,1011.29
2016-07-26T02:52:27.246Z,1011.35
2016-07-26T02:55:40.670Z,1011.29
2016-07-26T02:58:54.394Z,1011.31
2016-07-26T03:02:08.046Z,1011.37
2016-07-26T03:05:21.991Z,1011.45
2016-07-26T03:08:35.703Z,1011.41
2016-07-26T03:11:53.243Z,1011.37
2016-07-26T03:14:58.696Z,1011.39
2016-07-26T03:18:12.466Z,1011.35
2016-07-26T03:21:26.119Z,1011.33
2016-07-26T03:24:40.028Z,1011.39
2016-07-26T03:27:53.890Z,1011.51
2016-07-26T03:31:06.864Z,1011.57
2016-07-26T03:34:20.474Z,1011.64
2016-07-26T03:37:34.300Z,1011.7
2016-07-26T03:40:52.786Z,1011.7
2016-07-26T03:43:58.086Z,1011.78
2016-07-26T03:47:11.904Z,1011.8
2016-07-26T03:50:25.733Z,1011.88
2016-07-26T03:53:39.708Z,1011.86
2016-07-26T03:56:53.518Z,1011.86
2016-07-26T04:00:07.174Z,1011.78
2016-07-26T04:03:21.119Z,1011.92
2016-07-26T04:06:34.775Z,1011.84
2016-07-26T04:09:52.348Z,1011.8
2016-07-26T04:12:57.836Z,1011.8
2016-07-26T04:16:11.463Z,1011.76
2016-07-26T04:22:38.856Z,1011.86
2016-07-26T04:25:56.324Z,1011.82
2016-07-26T04:29:01.636Z,1011.84
2016-07-26T04:32:15.402Z,1011.9
2016-07-26T04:35:29.142Z,1011.82
2016-07-26T04:38:47.088Z,1011.86
2016-07-26T04:41:56.397Z,1011.92
2016-07-26T04:45:01.897Z,1012
2016-07-26T04:48:15.483Z,1012.02
2016-07-26T04:51:28.986Z,1012
2016-07-26T04:54:42.577Z,1011.9
2016-07-26T04:57:56.129Z,1011.92
2016-07-26T05:01:08.510Z,1011.9
2016-07-26T05:07:35.484Z,1012.04
2016-07-26T05:10:52.980Z,1012.1
2016-07-26T05:13:58.344Z,1012.06
2016-07-26T05:17:12.181Z,1012
2016-07-26T05:20:25.833Z,1012.02
2016-07-26T05:23:39.601Z,1011.92
2016-07-26T05:26:53.522Z,1011.98
2016-07-26T05:30:07.152Z,1012
2016-07-26T05:36:35.033Z,1012.02
2016-07-26T05:39:52.791Z,1012.06
2016-07-26T05:42:58.378Z,1012.06
2016-07-26T05:46:12.269Z,1012.16
2016-07-26T05:52:39.849Z,1012.26
2016-07-26T05:55:53.750Z,1012.2
2016-07-26T05:59:07.130Z,1012.36
2016-07-26T06:02:20.995Z,1012.34
2016-07-26T06:05:34.830Z,1012.32
2016-07-26T06:08:52.199Z,1012.3
2016-07-26T06:11:57.848Z,1012.26
2016-07-26T06:15:11.884Z,1012.32
2016-07-26T06:18:25.811Z,1012.24
2016-07-26T06:21:40.027Z,1012.34
2016-07-26T06:24:54.423Z,1012.28
2016-07-26T06:28:08.400Z,1012.28
2016-07-26T06:31:22.655Z,1012.3
2016-07-26T06:34:37.088Z,1012.38
2016-07-26T06:37:55.265Z,1012.3
2016-07-26T06:41:01.314Z,1012.38
2016-07-26T06:44:15.549Z,1012.32
2016-07-26T06:47:29.795Z,1012.32
2016-07-26T06:50:47.868Z,1012.38
2016-07-26T06:53:53.570Z,1012.4
2016-07-26T06:57:07.447Z,1012.6
2016-07-26T07:00:21.445Z,1012.46
2016-07-26T07:03:34.276Z,1012.54
2016-07-26T07:06:53.399Z,1012.54
2016-07-26T07:09:59.080Z,1012.44
2016-07-26T07:13:13.286Z,1012.42
2016-07-26T07:16:27.816Z,1012.34
2016-07-26T07:19:41.753Z,1012.44
2016-07-26T07:22:56.072Z,1012.36
2016-07-26T07:26:10.207Z,1012.32
2016-07-26T07:29:24.089Z,1012.44
2016-07-26T07:32:38.254Z,1012.34
2016-07-26T07:35:56.520Z,1012.36
2016-07-26T07:39:02.556Z,1012.3
2016-07-26T07:42:16.720Z,1012.34
2016-07-26T07:45:30.895Z,1012.32
2016-07-26T07:48:49.415Z,1012.26
2016-07-26T07:51:55.685Z,1012.32
2016-07-26T07:55:10.170Z,1012.32
2016-07-26T07:58:24.258Z,1012.26
2016-07-26T08:01:38.842Z,1012.4
2016-07-26T08:04:53.328Z,1012.46
2016-07-26T08:08:07.918Z,1012.38
2016-07-26T08:11:22.441Z,1012.48
2016-07-26T08:14:36.740Z,1012.46
2016-07-26T08:17:55.286Z,1012.38
2016-07-26T08:21:01.389Z,1012.34
2016-07-26T08:24:15.892Z,1012.42
2016-07-26T08:27:29.893Z,1012.44
2016-07-26T08:30:48.048Z,1012.46
2016-07-26T08:33:54.222Z,1012.4
2016-07-26T08:37:08.519Z,1012.54
2016-07-26T08:40:22.652Z,1012.6
2016-07-26T08:43:37.150Z,1012.56
2016-07-26T08:46:55.219Z,1012.64
2016-07-26T08:50:01.243Z,1012.62
2016-07-26T08:53:15.349Z,1012.6
2016-07-26T08:56:28.446Z,1012.6
2016-07-26T08:59:47.825Z,1012.56
2016-07-26T09:02:53.837Z,1012.72
2016-07-26T09:06:08.181Z,1012.78
2016-07-26T09:09:22.217Z,1012.86
2016-07-26T09:12:35.211Z,1012.9
2016-07-26T09:15:54.221Z,1013.02
2016-07-26T09:19:00.044Z,1012.88
2016-07-26T09:22:13.638Z,1012.9
2016-07-26T09:25:27.613Z,1012.9
2016-07-26T09:28:41.899Z,1012.96
2016-07-26T09:31:55.902Z,1012.98
2016-07-26T09:35:10.127Z,1012.96
2016-07-26T09:38:21.993Z,1012.88
2016-07-26T09:41:35.975Z,1012.98
2016-07-26T09:44:54.056Z,1012.94
2016-07-26T09:47:59.825Z,1013.02
2016-07-26T09:51:13.926Z,1012.98
2016-07-26T09:54:28.022Z,1013.02
2016-07-26T09:57:41.975Z,1013.07
2016-07-26T10:00:55.712Z,1013.09
2016-07-26T10:04:09.384Z,1013.06
2016-07-26T10:07:23.809Z,1013.06
2016-07-26T10:10:38.059Z,1013.02
2016-07-26T10:13:56.230Z,1013.02
2016-07-26T10:17:02.160Z,1013.07
2016-07-26T10:20:16.180Z,1013.06
2016-07-26T10:23:30.862Z,1013.15
2016-07-26T10:26:49.069Z,1013.04
2016-07-26T10:29:54.992Z,1013.09
2016-07-26T10:33:09.435Z,1013.06
2016-07-26T10:36:23.802Z,1013.06
2016-07-26T10:39:37.985Z,1013.07
2016-07-26T10:42:55.859Z,1013.06
2016-07-26T10:46:01.848Z,1013
2016-07-26T10:49:16.262Z,1012.94
2016-07-26T10:52:30.480Z,1012.88
2016-07-26T10:55:49.147Z,1012.92
2016-07-26T10:58:54.815Z,1013
2016-07-26T11:02:08.854Z,1012.9
2016-07-26T11:05:23.468Z,1012.9
2016-07-26T11:08:37.615Z,1012.88
2016-07-26T11:11:55.498Z,1012.8
2016-07-26T11:15:01.377Z,1012.78
2016-07-26T11:18:15.456Z,1012.8
2016-07-26T11:21:29.864Z,1012.78
2016-07-26T11:24:48.002Z,1012.84
2016-07-26T11:27:53.966Z,1012.78
2016-07-26T11:31:08.343Z,1012.72
2016-07-26T11:37:35.353Z,1012.64
2016-07-26T11:40:53.803Z,1012.62
2016-07-26T11:43:59.662Z,1012.64
2016-07-26T11:47:14.014Z,1012.52
2016-07-26T11:50:28.299Z,1012.64
2016-07-26T11:53:42.570Z,1012.6
2016-07-26T11:56:56.571Z,1012.58
2016-07-26T12:00:10.740Z,1012.64
2016-07-26T12:03:24.774Z,1012.68
2016-07-26T12:06:39.231Z,1012.78
2016-07-26T12:09:53.798Z,1012.66
2016-07-26T12:13:08.455Z,1012.68
2016-07-26T12:16:22.902Z,1012.7
2016-07-26T12:19:37.298Z,1012.6
2016-07-26T12:22:55.784Z,1012.64
2016-07-26T12:26:01.684Z,1012.56
2016-07-26T12:29:16.341Z,1012.6
2016-07-26T12:32:30.753Z,1012.54
2016-07-26T12:35:49.515Z,1012.56
2016-07-26T12:38:55.677Z,1012.62
2016-07-26T12:42:09.891Z,1012.54
2016-07-26T12:45:24.489Z,1012.5
2016-07-26T12:48:39.300Z,1012.56
2016-07-26T12:51:53.442Z,1012.5
2016-07-26T12:55:08.137Z,1012.48
2016-07-26T12:58:22.304Z,1012.46
2016-07-26T13:01:36.109Z,1012.5
2016-07-26T13:04:54.572Z,1012.6
2016-07-26T13:08:00.412Z,1012.56
2016-07-26T13:11:14.774Z,1012.48
2016-07-26T13:14:29.158Z,1012.58
2016-07-26T13:17:47.347Z,1012.48
2016-07-26T13:20:53.146Z,1012.58
2016-07-26T13:24:07.483Z,1012.56
2016-07-26T13:27:21.952Z,1012.42
2016-07-26T13:30:36.222Z,1012.58
2016-07-26T13:33:54.288Z,1012.46
2016-07-26T13:37:00.014Z,1012.52
2016-07-26T13:40:14.160Z,1012.58
2016-07-26T13:43:28.094Z,1012.44
2016-07-26T13:46:42.187Z,1012.5
2016-07-26T13:49:56.123Z,1012.44
2016-07-26T13:53:10.251Z,1012.46
2016-07-26T13:56:24.527Z,1012.34
2016-07-26T13:59:38.752Z,1012.34
2016-07-26T14:02:56.998Z,1012.26
2016-07-26T14:06:02.862Z,1012.24
2016-07-26T14:09:17.297Z,1012.26
2016-07-26T14:12:31.897Z,1012.28
2016-07-26T14:15:49.547Z,1012.28
2016-07-26T14:18:55.409Z,1012.28
2016-07-26T14:22:09.623Z,1012.32
2016-07-26T14:25:23.787Z,1012.3
2016-07-26T14:28:37.903Z,1012.3
2016-07-26T14:31:56.116Z,1012.24
2016-07-26T14:35:01.817Z,1012.36
2016-07-26T14:38:15.981Z,1012.3
2016-07-26T14:41:29.719Z,1012.32
2016-07-26T14:44:47.765Z,1012.2
2016-07-26T14:47:53.669Z,1012.3
2016-07-26T14:51:07.516Z,1012.3
2016-07-26T14:54:21.620Z,1012.34
2016-07-26T14:57:35.467Z,1012.32
2016-07-26T15:00:53.178Z,1012.3
2016-07-26T15:03:58.963Z,1012.38
2016-07-26T15:07:13.291Z,1012.32
2016-07-26T15:10:27.196Z,1012.22
2016-07-26T15:13:41.421Z,1012.28
2016-07-26T15:16:55.940Z,1012.36
2016-07-26T15:20:10.414Z,1012.34
2016-07-26T15:23:24.700Z,1012.24
2016-07-26T15:26:37.739Z,1012.26
2016-07-26T15:29:56.810Z,1012.32
2016-07-26T15:33:02.572Z,1012.26
2016-07-26T15:36:16.656Z,1012.3
2016-07-26T15:39:30.902Z,1012.28
2016-07-26T15:42:48.712Z,1012.36
2016-07-26T15:45:54.379Z,1012.38
2016-07-26T15:49:08.755Z,1012.4
2016-07-26T15:52:22.788Z,1012.3
2016-07-26T15:55:37.206Z,1012.34
2016-07-26T15:58:55.623Z,1012.44
2016-07-26T16:02:01.263Z,1012.44
2016-07-26T16:05:15.459Z,1012.5
2016-07-26T16:08:29.351Z,1012.52
2016-07-26T16:11:47.371Z,1012.6
2016-07-26T16:14:53.154Z,1012.56
2016-07-26T16:18:07.037Z,1012.52
2016-07-26T16:21:21.101Z,1012.58
2016-07-26T16:24:35.534Z,1012.5
2016-07-26T16:27:53.638Z,1012.52
2016-07-26T16:30:59.310Z,1012.6
2016-07-26T16:34:13.444Z,1012.58
2016-07-26T16:37:27.752Z,1012.66
2016-07-26T16:40:42.158Z,1012.64
2016-07-26T16:43:56.433Z,1012.62
2016-07-26T16:47:10.281Z,1012.7
2016-07-26T16:50:24.634Z,1012.66
2016-07-26T16:53:38.580Z,1012.68
2016-07-26T16:56:56.688Z,1012.6
2016-07-26T17:00:02.313Z,1012.7
2016-07-26T17:03:16.295Z,1012.7
2016-07-26T17:06:30.032Z,1012.62
2016-07-26T17:09:48.041Z,1012.68
2016-07-26T17:12:53.843Z,1012.64
2016-07-26T17:16:08.134Z,1012.74
2016-07-26T17:19:22.120Z,1012.78
2016-07-26T17:22:34.456Z,1012.86
2016-07-26T17:25:52.689Z,1012.8
2016-07-26T17:28:58.303Z,1012.84
2016-07-26T17:32:12.487Z,1012.84
2016-07-26T17:35:26.662Z,1012.84
2016-07-26T17:38:40.545Z,1012.84
2016-07-26T17:41:54.694Z,1012.82
2016-07-26T17:45:08.931Z,1012.8
2016-07-26T17:48:23.167Z,1012.8
2016-07-26T17:51:37.241Z,1012.7
2016-07-26T17:54:55.535Z,1012.84
2016-07-26T17:58:01.209Z,1012.78
2016-07-26T18:01:15.598Z,1012.86
2016-07-26T18:04:29.594Z,1012.86
2016-07-26T18:07:47.970Z,1012.82
2016-07-26T18:10:53.697Z,1012.86
2016-07-26T18:14:07.882Z,1012.84
2016-07-26T18:17:22.254Z,1012.94
2016-07-26T18:20:36.567Z,1012.86
2016-07-26T18:23:54.397Z,1012.82
2016-07-26T18:27:00.181Z,1012.86
2016-07-26T18:30:14.016Z,1012.82
2016-07-26T18:33:27.852Z,1012.86
2016-07-26T18:36:40.846Z,1012.8
2016-07-26T18:39:55.887Z,1012.74
2016-07-26T18:43:09.372Z,1012.88
2016-07-26T18:46:23.528Z,1012.82
2016-07-26T18:49:37.434Z,1012.82
2016-07-26T18:52:55.369Z,1012.78
2016-07-26T18:56:01.025Z,1012.82
2016-07-26T18:59:15.205Z,1012.92
2016-07-26T19:02:28.912Z,1012.88
2016-07-26T19:05:42.854Z,1012.9
2016-07-26T19:08:56.661Z,1012.86
2016-07-26T19:12:10.390Z,1012.84
2016-07-26T19:15:23.935Z,1012.92
2016-07-26T19:18:38.101Z,1013
2016-07-26T19:21:55.868Z,1013.07
2016-07-26T19:25:01.404Z,1013.09
2016-07-26T19:28:15.208Z,1013.11
2016-07-26T19:31:29.146Z,1013.13
2016-07-26T19:34:42.993Z,1013.07
2016-07-26T19:37:56.921Z,1013.23
2016-07-26T19:41:10.410Z,1013.19
2016-07-26T19:44:24.215Z,1013.17
2016-07-26T19:47:37.512Z,1013.11
2016-07-26T19:50:55.475Z,1013.17
2016-07-26T19:54:00.762Z,1013.23
2016-07-26T19:57:14.578Z,1013.23
2016-07-26T20:00:27.431Z,1013.15
2016-07-26T20:03:42.471Z,1013.11
2016-07-26T20:06:56.306Z,1013.09
2016-07-26T20:10:10.146Z,1013.17
2016-07-26T20:13:23.391Z,1013.15
2016-07-26T20:16:37.024Z,1013.17
2016-07-26T20:19:54.422Z,1013.29
2016-07-26T20:22:58.724Z,1013.19
2016-07-26T20:26:13.755Z,1013.23
2016-07-26T20:29:27.776Z,1013.29
2016-07-26T20:32:41.769Z,1013.33
2016-07-26T20:35:55.361Z,1013.43
2016-07-26T20:39:09.523Z,1013.37
2016-07-26T20:42:23.721Z,1013.27
2016-07-26T20:52:00.388Z,1013.31
2016-07-26T20:55:14.572Z,1013.43
2016-07-26T20:58:28.587Z,1013.47
2016-07-26T21:01:42.631Z,1013.51
2016-07-26T21:04:56.283Z,1013.51
2016-07-26T21:08:09.744Z,1013.51
2016-07-26T21:11:23.653Z,1013.51
2016-07-26T21:14:37.509Z,1013.57
2016-07-26T21:17:55.215Z,1013.55
2016-07-26T21:21:00.591Z,1013.51
2016-07-26T21:24:14.536Z,1013.61
2016-07-26T21:27:28.181Z,1013.63
2016-07-26T21:30:41.867Z,1013.63
2016-07-26T21:33:55.352Z,1013.71
2016-07-26T21:37:08.970Z,1013.77
2016-07-26T21:40:22.664Z,1013.75
2016-07-26T21:43:36.497Z,1013.79
2016-07-26T21:46:53.989Z,1013.77
2016-07-26T21:49:59.373Z,1013.79
2016-07-26T21:53:12.937Z,1013.73
2016-07-26T21:56:26.211Z,1013.79
2016-07-26T21:59:40.074Z,1013.79
2016-07-26T22:02:54.112Z,1013.75
2016-07-26T22:06:07.301Z,1013.79
2016-07-26T22:09:21.137Z,1013.95
2016-07-26T22:12:35.239Z,1013.95
2016-07-26T22:15:53.353Z,1013.87
2016-07-26T22:18:58.474Z,1013.93
2016-07-26T22:22:12.205Z,1013.85
2016-07-26T22:25:25.079Z,1013.81
2016-07-26T22:28:38.925Z,1014.03
2016-07-26T22:31:56.736Z,1013.93
2016-07-26T22:35:01.991Z,1013.89
2016-07-26T22:38:15.665Z,1013.87
2016-07-26T22:41:28.879Z,1013.83
2016-07-26T22:44:41.960Z,1013.83
2016-07-26T22:47:55.552Z,1013.83
2016-07-26T22:51:09.107Z,1013.81
2016-07-26T22:54:22.449Z,1013.77
2016-07-26T22:57:36.384Z,1013.79
2016-07-26T23:00:53.822Z,1013.75
2016-07-26T23:03:58.984Z,1013.87
2016-07-26T23:07:10.693Z,1013.77
2016-07-26T23:10:24.242Z,1013.75
2016-07-26T23:13:37.719Z,1013.67
2016-07-26T23:16:55.350Z,1013.63
2016-07-26T23:20:00.549Z,1013.59
2016-07-26T23:23:14.102Z,1013.67
2016-07-26T23:26:27.443Z,1013.77
2016-07-26T23:29:40.505Z,1013.75
2016-07-26T23:32:57.617Z,1013.69
2016-07-26T23:36:02.864Z,1013.59
2016-07-26T23:39:14.805Z,1013.63
2016-07-26T23:42:28.072Z,1013.51
2016-07-26T23:45:41.356Z,1013.57
2016-07-26T23:48:54.792Z,1013.51
2016-07-26T23:52:08.125Z,1013.49
2016-07-26T23:55:21.594Z,1013.47
2016-07-26T23:58:35.001Z,1013.43
